Time;durP1;ratioP1;P1;durP2;ratioP2;P2;SDS_P1;SDS_P2;PMS_P1;PMS_P2;Temp;Humidity;BMP_temperature;BMP_pressure;BME280_temperature;BME280_humidity;BME280_pressure;Samples;Min_cycle;Max_cycle;Signal;HPM_P1;HPM_P2
2023/10/19 00:01:11;;;;;;;13.07;9.45;;;8.10;99.90;;;;;;5098586;27;20402;-80
2023/10/19 00:03:37;;;;;;;13.32;10.27;;;8.00;99.90;;;;;;5074503;28;20050;-81
2023/10/19 00:06:05;;;;;;;11.40;9.30;;;8.10;99.90;;;;;;5062108;28;20044;-82
2023/10/19 00:09:04;;;;;;;14.05;9.15;;;8.10;99.90;;;;;;5074281;28;20089;-78
2023/10/19 00:11:24;;;;;;;13.80;9.93;;;8.00;99.90;;;;;;5082701;28;20047;-79
2023/10/19 00:13:50;;;;;;;11.75;9.30;;;8.00;99.90;;;;;;5100714;28;20089;-80
2023/10/19 00:16:16;;;;;;;12.38;10.13;;;8.00;99.90;;;;;;5098263;28;20067;-80
2023/10/19 00:18:49;;;;;;;13.40;9.80;;;8.00;99.90;;;;;;5070938;28;20047;-80
2023/10/19 00:21:25;;;;;;;13.63;10.98;;;8.00;99.90;;;;;;5077116;28;20069;-80
2023/10/19 00:23:56;;;;;;;13.63;9.95;;;8.00;99.90;;;;;;5102100;28;20031;-81
2023/10/19 00:26:25;;;;;;;12.73;10.45;;;8.00;99.90;;;;;;5105414;27;20047;-81
2023/10/19 00:28:57;;;;;;;13.05;10.23;;;7.90;99.90;;;;;;5073165;28;20028;-80
2023/10/19 00:31:27;;;;;;;13.48;11.05;;;8.00;99.90;;;;;;5082237;28;20043;-80
2023/10/19 00:33:56;;;;;;;12.15;9.57;;;8.00;99.90;;;;;;5065802;28;20156;-80
2023/10/19 00:36:23;;;;;;;13.45;10.35;;;7.90;99.90;;;;;;5074319;28;20532;-80
2023/10/19 00:41:30;;;;;;;16.15;10.63;;;8.00;99.90;;;;;;5086497;28;20056;-81
2023/10/19 00:44:02;;;;;;;14.45;10.38;;;8.10;99.90;;;;;;5078879;28;20040;-79
2023/10/19 00:46:43;;;;;;;14.52;11.25;;;8.00;99.90;;;;;;5073101;28;20039;-82
2023/10/19 00:49:14;;;;;;;13.25;9.80;;;8.00;99.90;;;;;;5095399;28;20032;-81
2023/10/19 00:54:32;;;;;;;12.80;10.32;;;8.00;99.90;;;;;;5091221;28;20126;-81
2023/10/19 00:57:06;;;;;;;14.90;11.32;;;8.10;99.90;;;;;;5107253;28;20494;-82
2023/10/19 00:59:35;;;;;;;13.23;10.23;;;8.10;99.90;;;;;;5074413;28;20039;-81
2023/10/19 01:02:17;;;;;;;13.05;10.23;;;8.10;99.90;;;;;;5095603;28;20048;-81
2023/10/19 01:04:55;;;;;;;12.30;10.02;;;8.00;99.90;;;;;;5073473;28;20105;-81
2023/10/19 01:07:27;;;;;;;13.82;9.95;;;8.10;99.90;;;;;;5085947;28;20032;-81
2023/10/19 01:09:59;;;;;;;11.98;10.27;;;8.00;99.90;;;;;;5067612;28;20089;-81
2023/10/19 01:12:25;;;;;;;13.18;10.82;;;8.10;99.90;;;;;;5096500;28;20052;-82
2023/10/19 01:15:07;;;;;;;;;;;8.10;99.90;;;;;;5091453;28;20047;-81
2023/10/19 01:17:43;;;;;;;14.88;11.07;;;8.10;99.90;;;;;;5101253;28;19932;-82
2023/10/19 01:28:43;;;;;;;15.90;10.95;;;8.10;99.90;;;;;;5080673;28;20136;-81
2023/10/19 01:31:29;;;;;;;13.48;11.00;;;8.10;99.90;;;;;;5073516;28;20047;-81
2023/10/19 01:34:05;;;;;;;15.23;11.23;;;8.20;99.90;;;;;;5073703;28;20028;-81
2023/10/19 01:36:42;;;;;;;14.47;11.07;;;8.00;99.90;;;;;;5098820;28;20086;-81
2023/10/19 01:39:11;;;;;;;15.05;11.43;;;8.00;99.90;;;;;;5100338;28;20040;-81
2023/10/19 01:41:41;;;;;;;14.13;11.70;;;8.20;99.90;;;;;;5095915;28;20087;-81
2023/10/19 01:44:07;;;;;;;14.38;11.15;;;8.20;99.90;;;;;;5094890;28;20545;-80
2023/10/19 01:46:36;;;;;;;12.45;10.40;;;8.00;99.90;;;;;;5071700;28;20120;-79
2023/10/19 01:49:03;;;;;;;12.90;10.60;;;8.10;99.90;;;;;;5094934;28;20398;-80
2023/10/19 01:51:38;;;;;;;13.43;10.27;;;8.20;99.90;;;;;;5089767;28;20127;-80
2023/10/19 01:54:05;;;;;;;12.75;10.80;;;8.00;99.90;;;;;;5089789;28;20051;-80
2023/10/19 01:56:31;;;;;;;14.43;11.52;;;8.20;99.90;;;;;;5062895;28;20141;-79
2023/10/19 01:58:59;;;;;;;14.32;11.18;;;8.00;99.90;;;;;;5085930;28;20071;-80
2023/10/19 02:04:00;;;;;;;13.10;10.50;;;8.10;99.90;;;;;;5074970;28;20502;-81
2023/10/19 02:06:36;;;;;;;13.93;10.85;;;8.20;99.90;;;;;;5101613;28;20429;-80
2023/10/19 02:09:21;;;;;;;14.48;10.73;;;8.20;99.90;;;;;;5115549;27;20493;-80
2023/10/19 02:11:53;;;;;;;12.57;10.23;;;8.10;99.90;;;;;;5092260;28;20044;-81
2023/10/19 02:14:19;;;;;;;14.80;10.93;;;8.10;99.90;;;;;;5102041;28;20035;-81
2023/10/19 02:16:50;;;;;;;12.65;10.38;;;8.00;99.90;;;;;;5087845;28;20063;-81
2023/10/19 02:19:17;;;;;;;13.25;9.93;;;8.20;99.90;;;;;;5090426;27;20039;-80
2023/10/19 02:21:43;;;;;;;12.50;10.27;;;8.10;99.90;;;;;;5108725;28;20039;-80
2023/10/19 02:24:14;;;;;;;11.35;9.50;;;8.00;99.90;;;;;;5069506;28;20035;-80
2023/10/19 02:26:41;;;;;;;12.40;9.98;;;8.20;99.90;;;;;;5091710;28;20055;-79
2023/10/19 02:29:10;;;;;;;12.30;9.73;;;8.00;99.90;;;;;;5103671;28;20050;-79
2023/10/19 02:31:42;;;;;;;11.88;9.10;;;8.00;99.90;;;;;;5092804;27;20044;-78
2023/10/19 02:34:11;;;;;;;11.63;9.57;;;8.10;99.90;;;;;;5092109;27;20100;-79
2023/10/19 02:36:39;;;;;;;11.57;9.73;;;8.10;99.90;;;;;;5088180;27;20035;-80
2023/10/19 02:39:07;;;;;;;11.15;9.13;;;8.00;99.90;;;;;;5079707;28;20490;-80
2023/10/19 02:41:44;;;;;;;12.02;10.40;;;8.20;99.90;;;;;;5080140;28;20039;-81
2023/10/19 02:46:49;;;;;;;9.88;8.10;;;8.00;99.90;;;;;;5096639;28;20402;-80
2023/10/19 02:49:19;;;;;;;10.63;9.05;;;8.20;99.90;;;;;;5117468;27;20043;-82
2023/10/19 02:51:46;;;;;;;9.52;8.50;;;8.00;99.90;;;;;;5116682;27;20047;-81
2023/10/19 02:54:30;;;;;;;;;;;8.00;99.90;;;;;;5081180;28;20035;-81
2023/10/19 02:56:58;;;;;;;11.35;9.35;;;8.20;99.90;;;;;;5105929;27;20424;-80
2023/10/19 02:59:28;;;;;;;9.45;7.90;;;8.20;99.90;;;;;;5069571;27;20547;-81
2023/10/19 03:02:17;;;;;;;9.40;8.07;;;8.00;99.90;;;;;;5101966;28;20078;-80
2023/10/19 03:04:43;;;;;;;10.18;9.07;;;8.20;99.90;;;;;;5101588;27;20047;-78
2023/10/19 03:07:12;;;;;;;9.20;7.50;;;8.00;99.90;;;;;;5089365;28;20031;-80
2023/10/19 03:09:53;;;;;;;8.45;7.53;;;8.00;99.90;;;;;;5105196;27;20126;-79
2023/10/19 03:12:20;;;;;;;10.43;8.45;;;8.20;99.90;;;;;;5086344;28;20031;-79
2023/10/19 03:14:47;;;;;;;8.75;7.60;;;8.00;99.90;;;;;;5088592;28;20058;-80
2023/10/19 03:17:14;;;;;;;9.75;8.13;;;8.20;99.90;;;;;;5079107;27;20171;-79
2023/10/19 03:19:39;;;;;;;;;;;8.10;99.90;;;;;;5113097;27;20047;-79
2023/10/19 03:22:09;;;;;;;9.32;8.25;;;8.20;99.90;;;;;;5121549;27;20324;-79
2023/10/19 03:29:54;;;;;;;9.35;8.18;;;8.10;99.90;;;;;;5106704;28;20064;-78
2023/10/19 03:32:22;;;;;;;8.65;7.68;;;8.10;99.90;;;;;;5086122;28;20047;-79
2023/10/19 03:34:49;;;;;;;8.02;7.07;;;8.20;99.90;;;;;;5089212;28;20131;-78
2023/10/19 03:37:17;;;;;;;7.65;6.60;;;8.20;99.90;;;;;;5094197;27;20070;-78
2023/10/19 03:39:45;;;;;;;9.07;8.00;;;8.20;99.90;;;;;;5123989;27;20107;-78
2023/10/19 03:42:13;;;;;;;8.48;7.30;;;8.30;99.90;;;;;;5101940;28;20043;-79
2023/10/19 03:47:19;;;;;;;8.05;6.85;;;8.20;99.90;;;;;;5098235;27;20043;-78
2023/10/19 03:49:51;;;;;;;8.43;7.25;;;8.10;99.90;;;;;;5118516;27;20047;-79
2023/10/19 03:54:43;;;;;;;8.38;6.60;;;8.20;99.90;;;;;;5103731;27;20050;-80
2023/10/19 03:57:20;;;;;;;7.80;6.97;;;8.10;99.90;;;;;;5065628;28;20490;-80
2023/10/19 03:59:49;;;;;;;8.18;7.13;;;8.20;99.90;;;;;;5104210;28;20051;-80
2023/10/19 04:02:21;;;;;;;7.63;6.82;;;8.10;99.90;;;;;;5067515;28;20479;-80
2023/10/19 04:04:48;;;;;;;7.57;6.47;;;8.30;99.90;;;;;;5057330;28;20036;-80
2023/10/19 04:07:25;;;;;;;8.15;7.22;;;8.10;99.90;;;;;;5042550;28;20051;-81
2023/10/19 04:10:04;;;;;;;6.95;6.00;;;8.40;99.90;;;;;;5049274;28;20044;-79
2023/10/19 04:12:35;;;;;;;6.72;6.03;;;8.40;99.90;;;;;;5074612;28;20471;-82
2023/10/19 04:15:20;;;;;;;7.63;6.75;;;8.40;99.90;;;;;;5070234;28;20118;-86
2023/10/19 04:17:48;;;;;;;6.38;5.70;;;8.20;99.90;;;;;;5066764;28;20071;-79
2023/10/19 04:22:50;;;;;;;7.88;6.90;;;8.40;99.90;;;;;;5085588;28;20142;-79
2023/10/19 04:25:25;;;;;;;7.85;7.00;;;8.50;99.90;;;;;;5080034;28;20082;-79
2023/10/19 04:27:50;;;;;;;6.35;5.60;;;8.40;99.90;;;;;;5083875;28;20040;-79
2023/10/19 04:30:16;;;;;;;6.03;5.35;;;8.20;99.90;;;;;;5077182;28;20043;-79
2023/10/19 04:32:43;;;;;;;6.38;5.65;;;8.30;99.90;;;;;;5071293;28;20464;-79
2023/10/19 04:35:09;;;;;;;6.65;5.75;;;8.40;99.90;;;;;;5075206;28;20082;-79
2023/10/19 04:37:35;;;;;;;6.90;6.20;;;8.20;99.90;;;;;;5052278;28;20044;-78
2023/10/19 04:40:02;;;;;;;6.38;5.70;;;8.30;99.90;;;;;;5070797;28;20527;-79
2023/10/19 04:42:28;;;;;;;8.35;6.80;;;8.30;99.90;;;;;;5052571;28;20502;-80
2023/10/19 04:44:56;;;;;;;7.03;6.32;;;8.30;99.90;;;;;;5060883;28;20040;-80
2023/10/19 04:47:23;;;;;;;7.10;6.05;;;8.30;99.90;;;;;;5060205;28;21002;-80
2023/10/19 04:49:49;;;;;;;5.93;5.25;;;8.40;99.90;;;;;;5076375;28;20472;-79
2023/10/19 04:52:15;;;;;;;6.03;5.43;;;8.50;99.90;;;;;;5059115;28;20031;-79
2023/10/19 04:54:42;;;;;;;7.07;5.32;;;8.40;99.90;;;;;;5056109;28;20533;-79
2023/10/19 04:57:10;;;;;;;5.57;4.97;;;8.50;99.90;;;;;;5075337;28;20044;-79
2023/10/19 04:59:36;;;;;;;5.05;4.50;;;8.40;99.90;;;;;;5071754;28;20048;-79
2023/10/19 05:02:02;;;;;;;5.28;4.63;;;8.30;99.90;;;;;;5076954;28;20065;-79
2023/10/19 05:04:29;;;;;;;6.30;4.80;;;8.50;99.90;;;;;;5082321;27;20133;-79
2023/10/19 05:06:55;;;;;;;5.00;4.50;;;8.40;99.90;;;;;;5079027;28;20379;-79
2023/10/19 05:09:21;;;;;;;6.03;4.90;;;8.60;99.90;;;;;;5096330;27;20036;-79
2023/10/19 05:11:47;;;;;;;5.20;4.70;;;8.40;99.90;;;;;;5094378;27;20138;-79
2023/10/19 05:14:13;;;;;;;5.22;4.72;;;8.30;99.90;;;;;;5097962;27;20044;-79
2023/10/19 05:16:40;;;;;;;5.82;5.00;;;8.60;99.90;;;;;;5091267;27;20047;-78
2023/10/19 05:19:05;;;;;;;;;;;8.40;99.90;;;;;;5093352;28;20477;-79
2023/10/19 05:21:31;;;;;;;5.22;4.72;;;8.40;99.90;;;;;;5095041;28;19923;-78
2023/10/19 05:24:00;;;;;;;5.38;4.40;;;8.30;99.90;;;;;;5093053;28;20048;-79
2023/10/19 05:26:27;;;;;;;4.40;4.00;;;8.50;99.90;;;;;;5081609;28;20039;-79
2023/10/19 05:28:57;;;;;;;5.68;4.20;;;8.40;99.90;;;;;;5092449;28;20100;-91
2023/10/19 05:31:22;;;;;;;4.38;3.97;;;8.40;99.90;;;;;;5071961;28;20485;-85
2023/10/19 05:33:48;;;;;;;4.85;4.10;;;8.40;99.90;;;;;;5070902;28;20077;-85
2023/10/19 05:36:14;;;;;;;4.18;3.72;;;8.50;99.90;;;;;;5098200;28;20075;-85
2023/10/19 05:38:40;;;;;;;4.40;4.00;;;8.40;99.90;;;;;;5070745;28;20036;-86
2023/10/19 05:41:07;;;;;;;4.20;3.70;;;8.40;99.90;;;;;;5076294;28;20811;-84
2023/10/19 05:43:34;;;;;;;4.10;3.70;;;8.40;99.90;;;;;;5077160;28;20138;-85
2023/10/19 05:46:00;;;;;;;3.92;3.53;;;8.40;99.90;;;;;;5061818;28;20042;-84
2023/10/19 05:48:26;;;;;;;;;;;8.40;99.90;;;;;;5096396;28;20530;-84
2023/10/19 05:50:52;;;;;;;3.67;3.28;;;8.60;99.90;;;;;;5093851;28;20019;-84
2023/10/19 05:53:22;;;;;;;4.18;3.65;;;8.60;99.90;;;;;;5086804;28;20032;-84
2023/10/19 05:55:49;;;;;;;5.15;3.67;;;8.40;99.90;;;;;;5078675;28;20078;-85
2023/10/19 05:58:15;;;;;;;4.20;3.67;;;8.60;99.90;;;;;;5078917;28;20039;-85
2023/10/19 06:00:42;;;;;;;4.05;3.50;;;8.50;99.90;;;;;;5071973;28;20492;-85
2023/10/19 06:03:10;;;;;;;4.10;3.45;;;8.60;99.90;;;;;;5071150;28;20171;-85
2023/10/19 06:05:36;;;;;;;3.88;3.47;;;8.40;99.90;;;;;;5062763;28;20087;-79
2023/10/19 06:08:02;;;;;;;3.90;3.50;;;8.70;99.90;;;;;;5058919;28;20157;-79
2023/10/19 06:10:28;;;;;;;3.88;3.20;;;8.50;99.90;;;;;;5073963;28;20032;-85
2023/10/19 06:12:54;;;;;;;3.20;2.90;;;8.40;99.90;;;;;;5073916;28;20035;-86
2023/10/19 06:15:24;;;;;;;3.30;2.92;;;8.70;99.90;;;;;;5088027;28;20387;-83
2023/10/19 06:17:50;;;;;;;3.53;3.20;;;8.40;99.90;;;;;;5085511;28;20519;-86
2023/10/19 06:20:28;;;;;;;3.10;2.80;;;8.70;99.90;;;;;;5061037;28;20040;-87
2023/10/19 06:23:04;;;;;;;3.20;2.70;;;8.60;99.90;;;;;;5078361;28;20051;-87
2023/10/19 06:25:31;;;;;;;3.10;2.50;;;8.60;99.90;;;;;;5062042;28;20075;-87
2023/10/19 06:27:57;;;;;;;2.97;2.30;;;8.60;99.90;;;;;;5058281;28;20068;-87
2023/10/19 06:30:24;;;;;;;3.08;2.78;;;8.50;99.90;;;;;;5060959;28;20075;-85
2023/10/19 06:32:55;;;;;;;2.90;2.60;;;8.70;99.90;;;;;;5071806;28;20388;-85
2023/10/19 06:35:22;;;;;;;3.10;2.70;;;8.50;99.90;;;;;;5066468;28;20104;-85
2023/10/19 06:37:48;;;;;;;2.63;2.35;;;8.40;99.90;;;;;;5072263;28;20048;-83
2023/10/19 06:40:16;;;;;;;2.67;2.38;;;8.50;99.90;;;;;;5091453;28;20036;-85
2023/10/19 06:42:45;;;;;;;2.70;2.20;;;8.70;99.90;;;;;;5066194;28;20079;-85
2023/10/19 06:45:15;;;;;;;2.63;2.28;;;8.50;99.90;;;;;;5072389;28;20158;-85
2023/10/19 06:47:49;;;;;;;2.35;2.00;;;8.70;99.90;;;;;;5059777;28;20115;-85
2023/10/19 06:50:17;;;;;;;2.22;1.90;;;8.60;99.90;;;;;;5091684;28;20109;-84
2023/10/19 06:52:44;;;;;;;2.45;2.00;;;8.80;99.90;;;;;;5069325;28;20079;-85
2023/10/19 06:55:14;;;;;;;2.95;2.08;;;8.60;99.90;;;;;;5091710;28;20032;-83
2023/10/19 06:57:44;;;;;;;2.47;2.10;;;8.50;99.90;;;;;;5070256;28;20044;-83
2023/10/19 07:00:14;;;;;;;2.10;1.70;;;8.60;99.90;;;;;;5080131;28;20534;-81
2023/10/19 07:02:42;;;;;;;2.22;2.03;;;8.70;99.90;;;;;;5066882;28;20522;-81
2023/10/19 07:05:17;;;;;;;2.47;2.00;;;8.60;99.90;;;;;;5065613;28;20431;-80
2023/10/19 07:07:44;;;;;;;1.98;1.77;;;8.50;99.90;;;;;;5086812;28;20044;-80
2023/10/19 07:10:14;;;;;;;3.00;2.55;;;8.80;99.90;;;;;;5064478;28;20113;-80
2023/10/19 07:12:42;;;;;;;3.53;2.88;;;8.80;99.90;;;;;;5063490;28;20044;-80
2023/10/19 07:15:13;;;;;;;3.72;2.80;;;8.60;99.90;;;;;;5062621;28;20082;-81
2023/10/19 07:17:40;;;;;;;2.97;2.30;;;8.80;99.90;;;;;;5072232;28;20057;-81
2023/10/19 07:20:07;;;;;;;2.70;2.42;;;8.50;99.90;;;;;;5052913;28;20044;-81
2023/10/19 07:22:37;;;;;;;2.50;2.10;;;8.60;99.90;;;;;;5052880;28;20044;-86
2023/10/19 07:25:08;;;;;;;2.28;1.95;;;8.50;99.90;;;;;;5072530;28;20122;-76
2023/10/19 07:27:34;;;;;;;2.00;1.80;;;8.80;99.90;;;;;;5071739;28;20037;-76
2023/10/19 07:30:01;;;;;;;2.38;2.17;;;8.80;99.90;;;;;;5054156;28;20499;-76
2023/10/19 07:32:27;;;;;;;1.85;1.65;;;8.60;99.90;;;;;;5046246;28;20302;-76
2023/10/19 07:34:54;;;;;;;1.67;1.40;;;8.50;99.90;;;;;;5076845;28;20044;-76
2023/10/19 07:37:21;;;;;;;1.67;1.58;;;8.60;99.90;;;;;;5071026;28;20136;-76
2023/10/19 07:39:47;;;;;;;1.88;1.60;;;8.80;99.90;;;;;;5070786;28;20446;-75
2023/10/19 07:42:14;;;;;;;;;;;8.80;99.90;;;;;;5072124;28;20400;-75
2023/10/19 07:44:41;;;;;;;1.63;1.40;;;8.60;99.90;;;;;;5054663;28;20003;-75
2023/10/19 07:47:09;;;;;;;;;;;8.80;99.90;;;;;;5071986;28;20067;-75
2023/10/19 07:49:39;;;;;;;2.25;1.60;;;8.60;99.90;;;;;;5071430;28;19932;-76
2023/10/19 07:52:10;;;;;;;1.50;1.30;;;8.80;99.90;;;;;;5054378;28;20123;-75
2023/10/19 07:54:37;;;;;;;1.58;1.30;;;8.80;99.90;;;;;;5071179;28;20109;-75
2023/10/19 07:57:06;;;;;;;1.58;1.27;;;8.90;99.90;;;;;;5054438;28;20453;-75
2023/10/19 07:59:35;;;;;;;1.52;1.17;;;8.60;99.90;;;;;;5058102;28;20047;-76
2023/10/19 08:02:04;;;;;;;1.58;1.33;;;8.90;99.90;;;;;;5094313;28;20550;-76
2023/10/19 08:04:30;;;;;;;1.73;1.58;;;8.80;99.90;;;;;;5094635;28;20047;-76
2023/10/19 08:06:57;;;;;;;2.47;1.85;;;8.90;99.90;;;;;;5094451;28;20127;-76
2023/10/19 08:09:23;;;;;;;2.03;1.52;;;8.90;99.90;;;;;;5078640;27;20088;-76
2023/10/19 08:11:55;;;;;;;1.92;1.60;;;8.60;99.90;;;;;;5064566;27;20043;-76
2023/10/19 08:14:24;;;;;;;1.83;1.70;;;8.90;99.90;;;;;;5097173;28;20035;-76
2023/10/19 08:16:51;;;;;;;2.65;1.75;;;8.80;99.90;;;;;;5077782;28;20437;-76
2023/10/19 08:19:18;;;;;;;1.60;1.50;;;8.60;99.90;;;;;;5093692;28;20081;-76
2023/10/19 08:21:44;;;;;;;1.80;1.70;;;8.80;99.90;;;;;;5077332;28;20040;-76
2023/10/19 08:24:13;;;;;;;1.83;1.63;;;8.70;99.90;;;;;;5093985;28;20050;-76
2023/10/19 08:26:42;;;;;;;2.00;1.70;;;8.60;99.90;;;;;;5076637;28;20048;-76
2023/10/19 08:29:15;;;;;;;1.88;1.70;;;8.60;99.90;;;;;;5093219;28;20495;-75
2023/10/19 08:31:42;;;;;;;1.67;1.58;;;8.90;99.90;;;;;;5093649;28;20067;-76
2023/10/19 08:34:11;;;;;;;2.03;1.70;;;8.70;99.90;;;;;;5077186;28;20192;-76
2023/10/19 08:36:40;;;;;;;2.10;1.90;;;8.70;99.90;;;;;;5093696;28;20063;-76
2023/10/19 08:39:08;;;;;;;1.90;1.70;;;8.90;99.90;;;;;;5076992;28;20031;-77
2023/10/19 08:41:35;;;;;;;2.25;1.90;;;8.60;99.90;;;;;;5076859;28;20514;-76
2023/10/19 08:44:13;;;;;;;1.98;1.77;;;8.90;99.90;;;;;;5093911;28;20485;-76
2023/10/19 08:46:43;;;;;;;2.00;1.70;;;8.80;99.90;;;;;;5093433;28;20051;-76
2023/10/19 08:49:12;;;;;;;2.17;1.80;;;8.60;99.90;;;;;;5076654;28;20039;-76
2023/10/19 08:51:39;;;;;;;2.00;1.70;;;8.60;99.90;;;;;;5076481;28;20483;-77
2023/10/19 08:54:06;;;;;;;2.67;1.60;;;8.80;99.90;;;;;;5092976;28;20179;-87
2023/10/19 08:56:33;;;;;;;2.22;1.95;;;8.60;99.90;;;;;;5111164;28;20042;-86
2023/10/19 08:59:01;;;;;;;2.33;1.90;;;9.00;99.90;;;;;;5083419;27;20127;-85
2023/10/19 09:01:29;;;;;;;2.08;1.88;;;8.70;99.90;;;;;;5097666;27;20095;-86
2023/10/19 09:03:59;;;;;;;2.10;1.90;;;8.80;99.90;;;;;;5115120;27;20050;-85
2023/10/19 09:06:25;;;;;;;2.47;2.20;;;9.00;99.90;;;;;;5115877;27;20442;-85
2023/10/19 09:08:51;;;;;;;1.90;1.70;;;8.80;99.90;;;;;;5084849;28;20044;-85
2023/10/19 09:11:20;;;;;;;2.00;1.80;;;9.00;99.90;;;;;;5080873;28;20108;-85
2023/10/19 09:13:51;;;;;;;2.67;2.28;;;9.00;99.90;;;;;;5078833;28;20402;-85
2023/10/19 09:16:21;;;;;;;2.45;2.20;;;8.80;99.90;;;;;;5112462;28;20036;-86
2023/10/19 09:18:48;;;;;;;2.08;1.83;;;8.80;99.90;;;;;;5087475;28;20039;-86
2023/10/19 09:21:25;;;;;;;2.58;2.30;;;8.80;99.90;;;;;;5109466;28;20044;-86
2023/10/19 09:23:57;;;;;;;3.15;2.35;;;8.80;99.90;;;;;;5079814;28;20059;-86
2023/10/19 09:26:24;;;;;;;3.03;2.30;;;8.90;99.90;;;;;;5109860;28;20559;-85
2023/10/19 09:28:51;;;;;;;2.05;1.85;;;8.90;99.90;;;;;;5098557;27;20058;-86
2023/10/19 09:31:18;;;;;;;3.17;2.30;;;8.90;99.90;;;;;;5115500;27;20095;-85
2023/10/19 09:33:46;;;;;;;2.88;2.50;;;8.90;99.90;;;;;;5079848;28;20042;-85
2023/10/19 09:36:13;;;;;;;4.65;2.38;;;8.80;99.90;;;;;;5089079;27;20112;-85
2023/10/19 09:38:52;;;;;;;3.33;2.35;;;8.80;99.90;;;;;;5094951;28;20128;-86
2023/10/19 09:41:21;;;;;;;3.17;2.60;;;9.00;99.90;;;;;;5077932;28;20036;-85
2023/10/19 09:43:50;;;;;;;2.97;2.58;;;9.10;99.90;;;;;;5109325;28;20032;-86
2023/10/19 09:46:29;;;;;;;3.00;2.60;;;9.10;99.90;;;;;;5123149;28;20477;-86
2023/10/19 09:48:56;;;;;;;2.97;2.17;;;9.20;99.90;;;;;;5098465;28;20043;-84
2023/10/19 09:51:23;;;;;;;3.50;2.83;;;8.90;99.90;;;;;;5105559;28;20043;-85
2023/10/19 09:54:17;;;;;;;3.15;2.67;;;9.30;99.90;;;;;;5096696;28;20398;-84
2023/10/19 09:56:51;;;;;;;3.47;3.03;;;9.30;99.90;;;;;;5115308;28;20040;-86
2023/10/19 09:59:33;;;;;;;3.22;2.80;;;9.00;99.90;;;;;;5095771;28;20470;-85
2023/10/19 10:02:12;;;;;;;3.58;2.95;;;9.20;99.90;;;;;;5094556;28;20413;-86
2023/10/19 10:04:39;;;;;;;3.60;2.60;;;9.40;99.90;;;;;;5094950;28;20043;-86
2023/10/19 10:07:07;;;;;;;3.63;3.00;;;9.30;99.90;;;;;;5077954;28;20417;-85
2023/10/19 10:09:46;;;;;;;4.15;3.10;;;9.10;99.90;;;;;;5111009;28;20499;-85
2023/10/19 10:12:34;;;;;;;3.15;2.45;;;9.30;99.90;;;;;;5101719;28;20039;-86
2023/10/19 10:15:03;;;;;;;4.70;3.65;;;9.50;99.90;;;;;;5086531;28;20088;-86
2023/10/19 10:17:32;;;;;;;3.30;2.90;;;9.20;99.90;;;;;;5097965;28;20490;-86
2023/10/19 10:20:13;;;;;;;3.53;3.05;;;9.60;99.90;;;;;;5097943;28;20035;-84
2023/10/19 10:22:41;;;;;;;4.85;3.20;;;9.50;99.90;;;;;;5082749;28;20036;-85
2023/10/19 10:25:07;;;;;;;3.83;3.00;;;9.30;99.90;;;;;;5094793;28;20070;-85
2023/10/19 10:27:36;;;;;;;3.42;2.72;;;9.40;99.90;;;;;;5088262;28;20047;-85
2023/10/19 10:30:07;;;;;;;4.07;2.92;;;9.40;99.90;;;;;;5119317;28;20055;-85
2023/10/19 10:32:55;;;;;;;4.28;3.53;;;9.40;99.90;;;;;;5107510;28;20039;-85
2023/10/19 10:35:37;;;;;;;3.92;2.90;;;9.60;99.90;;;;;;5094235;28;20406;-85
2023/10/19 10:38:09;;;;;;;3.88;3.08;;;9.40;99.90;;;;;;5086610;28;20075;-85
2023/10/19 10:40:49;;;;;;;3.72;2.90;;;9.70;99.90;;;;;;5080735;28;20038;-84
2023/10/19 10:43:17;;;;;;;3.92;3.13;;;9.60;99.90;;;;;;5115032;28;20042;-84
2023/10/19 10:45:43;;;;;;;3.83;2.90;;;9.40;99.90;;;;;;5097815;28;20130;-84
2023/10/19 10:48:16;;;;;;;;;;;9.70;99.90;;;;;;5111960;28;20043;-84
2023/10/19 10:50:42;;;;;;;3.83;3.42;;;9.50;99.90;;;;;;5111835;28;19960;-85
2023/10/19 10:53:12;;;;;;;3.72;2.90;;;9.80;99.90;;;;;;5097940;28;20043;-84
2023/10/19 10:55:41;;;;;;;4.03;2.97;;;9.60;99.90;;;;;;5101184;27;20039;-85
2023/10/19 10:58:07;;;;;;;4.18;3.50;;;9.80;99.90;;;;;;5101709;27;20103;-84
2023/10/19 11:00:34;;;;;;;3.85;2.92;;;9.70;99.90;;;;;;5087047;27;20151;-85
2023/10/19 11:03:09;;;;;;;3.70;3.03;;;9.50;99.90;;;;;;5110659;28;20100;-84
2023/10/19 11:05:38;;;;;;;4.28;3.00;;;9.60;99.90;;;;;;5093590;28;20501;-85
2023/10/19 11:08:07;;;;;;;4.13;2.72;;;9.60;99.90;;;;;;5101250;27;20393;-85
2023/10/19 11:10:34;;;;;;;3.95;3.20;;;9.50;99.90;;;;;;5104691;28;20092;-84
2023/10/19 11:13:05;;;;;;;5.03;3.00;;;9.60;99.90;;;;;;5083288;28;20462;-84
2023/10/19 11:15:32;;;;;;;4.15;3.30;;;9.80;99.90;;;;;;5097850;28;20044;-84
2023/10/19 11:17:58;;;;;;;4.55;3.35;;;9.50;99.90;;;;;;5097441;28;20064;-85
2023/10/19 11:20:27;;;;;;;5.03;3.20;;;9.50;99.90;;;;;;5114695;28;20039;-84
2023/10/19 11:22:55;;;;;;;4.63;3.25;;;9.90;99.90;;;;;;5117757;27;20038;-84
2023/10/19 11:25:29;;;;;;;3.58;2.95;;;9.90;99.90;;;;;;5116746;27;20117;-84
2023/10/19 11:28:00;;;;;;;2.83;2.47;;;9.80;99.90;;;;;;5082573;28;20044;-85
2023/10/19 11:30:28;;;;;;;4.05;2.95;;;9.80;99.90;;;;;;5078788;28;20172;-84
2023/10/19 11:32:59;;;;;;;3.17;2.88;;;9.50;99.90;;;;;;5105141;28;20039;-83
2023/10/19 11:35:34;;;;;;;10.05;4.75;;;9.80;99.90;;;;;;5099664;28;20861;-84
2023/10/19 11:38:02;;;;;;;4.00;3.60;;;9.60;99.90;;;;;;5114237;28;20043;-84
2023/10/19 11:40:28;;;;;;;4.05;3.42;;;9.80;99.90;;;;;;5083030;28;20089;-84
2023/10/19 11:42:58;;;;;;;5.65;4.38;;;9.50;99.90;;;;;;5107598;28;20043;-84
2023/10/19 11:45:24;;;;;;;3.67;3.28;;;9.90;99.90;;;;;;5113455;27;20051;-84
2023/10/19 11:47:50;;;;;;;4.15;3.70;;;9.60;99.90;;;;;;5117447;27;20431;-84
2023/10/19 11:50:17;;;;;;;;;;;9.90;99.90;;;;;;5100681;27;20031;-85
2023/10/19 11:52:45;;;;;;;4.22;3.72;;;9.50;99.90;;;;;;5110722;28;20259;-84
2023/10/19 11:55:15;;;;;;;3.92;3.53;;;9.60;99.90;;;;;;5073610;28;20177;-84
2023/10/19 11:57:43;;;;;;;4.22;3.80;;;9.50;99.90;;;;;;5111010;28;20048;-84
2023/10/19 12:00:21;;;;;;;3.55;3.25;;;9.60;99.90;;;;;;5096469;28;20060;-84
2023/10/19 12:02:47;;;;;;;4.40;3.88;;;9.70;99.90;;;;;;5096451;28;20047;-85
2023/10/19 12:05:13;;;;;;;;;;;9.80;99.90;;;;;;5088575;28;20044;-85
2023/10/19 12:07:39;;;;;;;3.42;2.80;;;9.80;99.90;;;;;;5111504;28;20380;-84
2023/10/19 12:10:10;;;;;;;4.68;3.42;;;9.50;99.90;;;;;;5089823;28;20119;-85
2023/10/19 12:12:39;;;;;;;5.45;3.78;;;9.80;99.90;;;;;;5093136;28;20089;-85
2023/10/19 12:15:06;;;;;;;4.68;3.58;;;9.80;99.90;;;;;;5098758;27;20047;-79
2023/10/19 12:17:32;;;;;;;4.85;4.20;;;9.70;99.90;;;;;;5104527;28;20120;-79
2023/10/19 12:19:58;;;;;;;5.57;3.45;;;9.80;99.90;;;;;;5077547;28;20857;-80
2023/10/19 12:22:28;;;;;;;4.55;4.00;;;9.50;99.90;;;;;;5077479;28;20096;-79
2023/10/19 12:24:56;;;;;;;7.82;5.25;;;9.90;99.90;;;;;;5080529;28;20404;-79
2023/10/19 12:27:24;;;;;;;6.18;5.65;;;9.50;99.90;;;;;;5086170;28;20040;-80
2023/10/19 12:29:50;;;;;;;6.38;5.78;;;9.60;99.90;;;;;;5075388;27;20042;-79
2023/10/19 12:32:16;;;;;;;7.15;6.05;;;9.80;99.90;;;;;;5077814;28;20044;-80
2023/10/19 12:34:42;;;;;;;9.05;6.72;;;9.40;99.90;;;;;;5094637;28;20043;-79
2023/10/19 12:37:10;;;;;;;6.85;6.18;;;9.60;99.90;;;;;;5077580;28;20084;-79
2023/10/19 12:39:38;;;;;;;7.70;6.75;;;9.70;99.90;;;;;;5077565;28;20051;-79
2023/10/19 12:42:04;;;;;;;7.20;6.50;;;9.70;99.90;;;;;;5092211;28;20039;-79
2023/10/19 12:44:32;;;;;;;7.20;6.47;;;9.50;99.90;;;;;;5083748;28;20470;-80
2023/10/19 12:46:58;;;;;;;7.40;6.60;;;9.30;99.90;;;;;;5082205;28;20040;-80
2023/10/19 12:49:25;;;;;;;6.95;6.25;;;9.30;99.90;;;;;;5065069;28;20036;-79
2023/10/19 12:51:54;;;;;;;6.40;5.80;;;9.30;99.90;;;;;;5077904;28;20035;-80
2023/10/19 12:54:20;;;;;;;9.55;6.95;;;9.70;99.90;;;;;;5112866;28;20023;-79
2023/10/19 12:56:49;;;;;;;8.15;6.95;;;9.70;99.90;;;;;;5103697;28;20097;-80
2023/10/19 12:59:17;;;;;;;7.25;5.70;;;9.70;99.90;;;;;;5079447;28;20176;-80
2023/10/19 13:01:44;;;;;;;5.85;5.25;;;9.70;99.90;;;;;;5078161;28;20047;-80
2023/10/19 13:04:23;;;;;;;5.85;5.32;;;9.60;99.90;;;;;;5077505;28;20108;-79
2023/10/19 13:06:57;;;;;;;6.32;5.60;;;9.40;99.90;;;;;;5093710;28;20040;-79
2023/10/19 13:09:32;;;;;;;5.53;4.72;;;9.70;99.90;;;;;;5065180;27;20524;-79
2023/10/19 13:11:59;;;;;;;5.30;4.80;;;9.40;99.90;;;;;;5098500;27;20043;-79
2023/10/19 13:14:26;;;;;;;5.88;4.60;;;9.70;99.90;;;;;;5093421;28;20114;-78
2023/10/19 13:16:52;;;;;;;5.30;4.75;;;9.30;99.90;;;;;;5100404;28;20475;-79
2023/10/19 13:19:23;;;;;;;6.03;4.82;;;9.60;99.90;;;;;;5077170;28;20043;-79
2023/10/19 13:21:50;;;;;;;6.13;4.40;;;9.60;99.90;;;;;;5093437;28;20118;-79
2023/10/19 13:24:16;;;;;;;;;;;9.40;99.90;;;;;;5071686;28;20040;-79
2023/10/19 13:26:45;;;;;;;5.22;4.13;;;9.50;99.90;;;;;;5093521;28;19949;-79
2023/10/19 13:29:11;;;;;;;6.18;4.28;;;9.70;99.90;;;;;;5053621;27;20081;-79
2023/10/19 13:31:37;;;;;;;4.85;4.20;;;9.30;99.90;;;;;;5098200;28;20071;-80
2023/10/19 13:34:10;;;;;;;6.22;4.70;;;9.30;99.90;;;;;;5047179;28;20510;-79
2023/10/19 13:36:36;;;;;;;5.55;4.13;;;9.60;99.90;;;;;;5094177;28;20513;-79
2023/10/19 13:39:03;;;;;;;;;;;9.50;99.90;;;;;;5114169;27;20043;-79
2023/10/19 13:41:29;;;;;;;5.75;4.45;;;9.50;99.90;;;;;;5084489;28;19923;-80